Nashville, Ohio
Current Conditions -  °F | °C
As of 7:24 PM on Wednesday 22 Oct 2014 (Local Time) from KBJJ Reporting Station
Overcast Overcast  
Wind Chill: 47°   Ceiling: 2900
Heat Index: 49°   Visibility: 10mi
Dew Point: 42°   Wind: 5mph
Humidity: 77%   Direction: 350°N
Pressure: 30.24"   Gusts: NA
Location:  40.6°N, 82.11°W
Report Text: KBJJ 222324Z AUTO 35004KT 10SM OVC029 09/06 A3024 RMK AO2 T00940056 TSNO
Loading
Personal Weather Stations






























Interactive Weather Map
Tropical Storm Tracking
New forecast layout! Learn more

10-Day Weather Forecast

Advertisements
Track Severe Weather on mobile